Saturday, October 25, 2014, 10:51 PM EDT

KDOV, Dover Air Force Base

Location: Dover, DE, United States Lat: 39.133
Local Time: 10:51 PM EDT ( 2:51 GMT) Lon: -75.467
Time Zone: US/Eastern Elev: 29 ft

Show me the last for .
Show Decoded

2014-10-25 21:58 METAR KDOV 260158Z AUTO 19008KT 9SM R19/5500FT CLR 13/09 A2969 =
2014-10-25 20:58 METAR KDOV 260058Z AUTO 20009KT 9SM R19/5500FT CLR 14/08 A2970 RMK AO2 SLP061
                 T01410080 =
2014-10-25 20:03 METAR KDOV 260003Z AUTO 20007KT 9SM R19/5500FT CLR 15/07 A2971 RMK AO2 =
2014-10-25 19:58 METAR KDOV 252358Z AUTO 20008KT 9SM CLR 15/07 A2971 =
2014-10-25 19:18 METAR KDOV 252318Z AUTO 19007KT 8SM CLR 16/08 A2970 RMK AO2 =
2014-10-25 18:58 METAR KDOV 252258Z AUTO 19009KT 8SM R19/5500FT CLR 16/08 A2970 RMK AO2 SLP061
                 T01600083 =
2014-10-25 18:48 METAR KDOV 252248Z AUTO 19008KT 8SM R19/5500FT CLR 16/08 A2970 RMK AO2 =
2014-10-25 17:58 METAR KDOV 252158Z AUTO 22007KT 7SM CLR 18/08 A2973 =
2014-10-25 16:58 METAR KDOV 252058Z AUTO 23010G20KT 10SM CLR 20/07 A2973 RMK AO2 SLP071 T01990069
                 57019 =
2014-10-25 15:58 METAR KDOV 251958Z AUTO 26016G19KT 10SM CLR 20/07 A2976 RMK AO2 SLP081 T02010073
                 =
2014-10-25 14:58 METAR KDOV 251858Z AUTO 25016G21KT 10SM CLR 21/07 A2977 RMK AO2 SLP084 T02060071
                 =
2014-10-25 13:58 METAR KDOV 251758Z AUTO 25011KT 10SM CLR 20/07 A2979 RMK AO2 SLP091 T02020074
                 10203 20080 57040 =
2014-10-25 12:58 METAR KDOV 251658Z AUTO VRB06KT 10SM CLR 19/08 A2984 RMK AO2 SLP108 T01930076 =
2014-10-25 11:58 METAR KDOV 251558Z AUTO 27008KT 10SM CLR 18/07 A2988 RMK AO2 SLP121 T01790069 =
2014-10-25 10:58 METAR KDOV 251458Z AUTO 28008KT 10SM CLR 17/07 A2991 RMK AO2 SLP132 T01660071
                 58002 =
2014-10-25 09:58 METAR KDOV 251358Z AUTO 28005KT 10SM CLR 14/07 A2992 RMK AO2 SLP135 T01390069 =
2014-10-25 08:58 METAR KDOV 251258Z AUTO 27004KT 10SM CLR 11/06 A2992 =
2014-10-25 07:58 METAR KDOV 251158Z AUTO 28004KT 10SM CLR 07/05 A2991 =
2014-10-25 06:58 METAR KDOV 251058Z AUTO 20001KT 10SM CLR 07/05 A2990 RMK AO2 SLP128 T00720045 =
2014-10-25 05:58 METAR KDOV 250958Z AUTO 26003KT 10SM CLR 09/05 A2990 =
2014-10-25 04:58 METAR KDOV 250858Z AUTO 28007KT 10SM CLR 09/05 A2990 =
2014-10-25 03:58 METAR KDOV 250758Z AUTO 28006KT 10SM CLR 09/05 A2989 =
2014-10-25 02:58 METAR KDOV 250658Z AUTO 27005KT 10SM CLR 10/05 A2990 =
2014-10-25 01:58 METAR KDOV 250558Z AUTO 28007KT 10SM CLR 12/05 A2989 =
2014-10-25 00:58 METAR KDOV 250458Z AUTO 28009KT 10SM CLR 12/04 A2988 RMK AO2 SLP121 T01210043
                 401990115 =
2014-10-24 23:58 METAR KDOV 250358Z AUTO 29007KT 10SM CLR 13/04 A2988 =
2014-10-24 22:58 METAR KDOV 250258Z AUTO 27009G15KT 10SM CLR 14/04 A2988 =

Support USWX by starting your Amazon purchase here.